createdAt,value
2023-05-22T00:00:29.642Z,1249.00
2023-05-22T00:01:29.646Z,1236.00
2023-05-22T00:02:29.712Z,1247.00
2023-05-22T00:03:29.710Z,1239.00
2023-05-22T00:04:29.700Z,1236.00
2023-05-22T00:05:29.711Z,1239.00
2023-05-22T00:06:29.691Z,1239.00
2023-05-22T00:07:29.704Z,1241.00
2023-05-22T00:08:30.000Z,1220.00
2023-05-22T00:09:29.761Z,1234.00
2023-05-22T00:10:29.735Z,1240.00
2023-05-22T00:11:29.752Z,1242.00
2023-05-22T00:12:29.758Z,1234.00
2023-05-22T00:13:29.774Z,1240.00
2023-05-22T00:14:29.784Z,1236.00
2023-05-22T00:15:29.789Z,1229.00
2023-05-22T00:16:29.806Z,1237.00
2023-05-22T00:17:29.877Z,1241.00
2023-05-22T00:18:29.818Z,1225.00
2023-05-22T00:19:29.894Z,1241.00
2023-05-22T00:20:29.835Z,1241.00
2023-05-22T00:21:29.842Z,1235.00
2023-05-22T00:22:29.858Z,1231.00
2023-05-22T00:23:29.876Z,1246.00
2023-05-22T00:24:29.862Z,1232.00
2023-05-22T00:25:29.875Z,1222.00
2023-05-22T00:26:29.894Z,1242.00
2023-05-22T00:27:29.908Z,1227.00
2023-05-22T00:28:29.907Z,1237.00
2023-05-22T00:29:29.928Z,1234.00
2023-05-22T00:30:29.931Z,1232.00
2023-05-22T00:31:29.940Z,1231.00
2023-05-22T00:32:30.001Z,1233.00
2023-05-22T00:33:29.971Z,1231.00
2023-05-22T00:34:30.022Z,1234.00
2023-05-22T00:35:29.986Z,1236.00
2023-05-22T00:36:29.986Z,1232.00
2023-05-22T00:37:30.094Z,1233.00
2023-05-22T00:38:30.014Z,1214.00
2023-05-22T00:39:30.028Z,1215.00
2023-05-22T00:40:30.032Z,1236.00
2023-05-22T00:41:30.052Z,1230.00
2023-05-22T00:42:30.069Z,1216.00
2023-05-22T00:43:30.076Z,1224.00
2023-05-22T00:44:30.092Z,1227.00
2023-05-22T00:45:30.114Z,1221.00
2023-05-22T00:46:30.153Z,1231.00
2023-05-22T00:47:30.143Z,1227.00
2023-05-22T00:48:30.112Z,1228.00
2023-05-22T00:49:30.120Z,1227.00
2023-05-22T00:50:30.163Z,1216.00
2023-05-22T00:51:30.193Z,1223.00
2023-05-22T00:52:30.232Z,1211.00
2023-05-22T00:53:30.380Z,1216.00
2023-05-22T00:54:30.312Z,1214.00
2023-05-22T00:55:30.338Z,1218.00
2023-05-22T00:56:30.365Z,1203.00
2023-05-22T00:57:30.404Z,1219.00
2023-05-22T00:58:30.436Z,1225.00
2023-05-22T00:59:30.464Z,1222.00
2023-05-22T01:00:30.502Z,1205.00
2023-05-22T01:01:30.564Z,1224.00
2023-05-22T01:02:30.601Z,1226.00
2023-05-22T01:03:30.648Z,1211.00
2023-05-22T01:04:30.647Z,1220.00
2023-05-22T01:05:30.688Z,1216.00
2023-05-22T01:06:30.722Z,1222.00
2023-05-22T01:07:30.751Z,1206.00
2023-05-22T01:08:30.776Z,1212.00
2023-05-22T01:09:30.801Z,1218.00
2023-05-22T01:10:30.848Z,1223.00
2023-05-22T01:11:30.869Z,1212.00
2023-05-22T01:12:30.911Z,1223.00
2023-05-22T01:13:30.912Z,1224.00
2023-05-22T01:14:30.918Z,1224.00
2023-05-22T01:15:30.933Z,1224.00
2023-05-22T01:16:30.991Z,1230.00
2023-05-22T01:17:30.970Z,1220.00
2023-05-22T01:18:30.977Z,1209.00
2023-05-22T01:19:31.095Z,1223.00
2023-05-22T01:20:30.974Z,1230.00
2023-05-22T01:21:30.980Z,1221.00
2023-05-22T01:22:30.992Z,1229.00
2023-05-22T01:23:31.016Z,1223.00
2023-05-22T01:24:31.021Z,1202.00
2023-05-22T01:25:31.121Z,1208.00
2023-05-22T01:26:31.050Z,1213.00
2023-05-22T01:27:31.050Z,1215.00
2023-05-22T01:28:31.078Z,1211.00
2023-05-22T01:29:31.071Z,1211.00
2023-05-22T01:30:31.068Z,1219.00
2023-05-22T01:31:31.096Z,1212.00
2023-05-22T01:32:31.187Z,1220.00
2023-05-22T01:33:31.204Z,1213.00
2023-05-22T01:34:31.112Z,1222.00
2023-05-22T01:35:31.121Z,1209.00
2023-05-22T01:36:31.127Z,1222.00
2023-05-22T01:37:31.154Z,1211.00
2023-05-22T01:38:31.203Z,1221.00
2023-05-22T01:39:31.208Z,1200.00
2023-05-22T01:40:31.239Z,1220.00
2023-05-22T01:41:31.282Z,1207.00
2023-05-22T01:42:31.339Z,1205.00
2023-05-22T01:43:31.349Z,1215.00
2023-05-22T01:44:31.413Z,1210.00
2023-05-22T01:45:31.470Z,1208.00
2023-05-22T01:46:31.518Z,1223.00
2023-05-22T01:47:31.562Z,1212.00
2023-05-22T01:48:31.566Z,1221.00
2023-05-22T01:49:31.610Z,1217.00
2023-05-22T01:50:31.661Z,1212.00
2023-05-22T01:51:31.674Z,1216.00
2023-05-22T01:52:31.680Z,1217.00
2023-05-22T01:53:31.683Z,1217.00
2023-05-22T01:54:31.698Z,1212.00
2023-05-22T01:55:31.711Z,1217.00
2023-05-22T01:56:31.724Z,1219.00
2023-05-22T01:57:31.735Z,1217.00
2023-05-22T01:58:31.781Z,1220.00
2023-05-22T01:59:31.754Z,1217.00
2023-05-22T02:00:31.768Z,1210.00
2023-05-22T02:01:31.814Z,1214.00
2023-05-22T02:02:31.881Z,1218.00
2023-05-22T02:03:31.862Z,1214.00
2023-05-22T02:04:31.803Z,1219.00
2023-05-22T02:05:31.804Z,1219.00
2023-05-22T02:06:31.815Z,1215.00
2023-05-22T02:07:31.835Z,1226.00
2023-05-22T02:08:31.847Z,1210.00
2023-05-22T02:09:31.858Z,1218.00
2023-05-22T02:10:31.875Z,1214.00
2023-05-22T02:11:31.880Z,1209.00
2023-05-22T02:12:31.917Z,1210.00
2023-05-22T02:13:31.910Z,1213.00
2023-05-22T02:14:31.916Z,1212.00
2023-05-22T02:15:31.947Z,1201.00
2023-05-22T02:16:31.949Z,1208.00
2023-05-22T02:17:31.995Z,1207.00
2023-05-22T02:18:31.963Z,1227.00
2023-05-22T02:19:32.025Z,1209.00
2023-05-22T02:20:32.000Z,1214.00
2023-05-22T02:21:32.005Z,1204.00
2023-05-22T02:22:32.038Z,1213.00
2023-05-22T02:23:32.042Z,1211.00
2023-05-22T02:24:32.060Z,1210.00
2023-05-22T02:25:32.090Z,1206.00
2023-05-22T02:26:32.087Z,1203.00
2023-05-22T02:27:32.109Z,1209.00
2023-05-22T02:28:32.132Z,1202.00
2023-05-22T02:29:32.135Z,1213.00
2023-05-22T02:30:32.148Z,1208.00
2023-05-22T02:31:32.269Z,1199.00
2023-05-22T02:32:32.213Z,1201.00
2023-05-22T02:33:32.211Z,1208.00
2023-05-22T02:34:32.226Z,1216.00
2023-05-22T02:35:32.229Z,1201.00
2023-05-22T02:36:32.260Z,1206.00
2023-05-22T02:37:32.309Z,1206.00
2023-05-22T02:38:32.352Z,1212.00
2023-05-22T02:39:32.412Z,1200.00
2023-05-22T02:40:32.416Z,1201.00
2023-05-22T02:41:32.442Z,1202.00
2023-05-22T02:42:32.462Z,1205.00
2023-05-22T02:43:32.457Z,1206.00
2023-05-22T02:44:32.483Z,1207.00
2023-05-22T02:45:32.492Z,1213.00
2023-05-22T02:46:32.522Z,1211.00
2023-05-22T02:47:32.591Z,1208.00
2023-05-22T02:48:32.554Z,1210.00
2023-05-22T02:49:32.566Z,1212.00
2023-05-22T02:50:32.576Z,1202.00
2023-05-22T02:51:32.586Z,1232.00
2023-05-22T02:52:32.608Z,1213.00
2023-05-22T02:53:32.615Z,1202.00
2023-05-22T02:54:32.633Z,1205.00
2023-05-22T02:55:32.646Z,1202.00
2023-05-22T02:56:32.665Z,1213.00
2023-05-22T02:57:32.684Z,1211.00
2023-05-22T02:58:32.702Z,1225.00
2023-05-22T02:59:32.710Z,1225.00
2023-05-22T03:00:32.723Z,1227.00
2023-05-22T03:01:32.859Z,1214.00
2023-05-22T03:02:32.845Z,1205.00
2023-05-22T03:03:32.809Z,1225.00
2023-05-22T03:04:32.778Z,1221.00
2023-05-22T03:05:32.793Z,1226.00
2023-05-22T03:06:32.810Z,1224.00
2023-05-22T03:07:32.822Z,1210.00
2023-05-22T03:08:32.857Z,1222.00
2023-05-22T03:09:32.860Z,1210.00
2023-05-22T03:10:32.887Z,1225.00
2023-05-22T03:11:32.892Z,1205.00
2023-05-22T03:12:32.951Z,1206.00
2023-05-22T03:13:32.928Z,1210.00
2023-05-22T03:14:32.929Z,1215.00
2023-05-22T03:15:32.937Z,1217.00
2023-05-22T03:16:33.018Z,1213.00
2023-05-22T03:17:33.078Z,1207.00
2023-05-22T03:18:32.977Z,1202.00
2023-05-22T03:19:33.019Z,1210.00
2023-05-22T03:20:33.013Z,1201.00
2023-05-22T03:21:33.057Z,1202.00
2023-05-22T03:22:33.107Z,1204.00
2023-05-22T03:23:33.158Z,1206.00
2023-05-22T03:24:33.154Z,1207.00
2023-05-22T03:25:33.165Z,1211.00
2023-05-22T03:26:33.164Z,1206.00
2023-05-22T03:27:33.200Z,1215.00
2023-05-22T03:28:33.234Z,1208.00
2023-05-22T03:29:33.198Z,1225.00
2023-05-22T03:30:33.231Z,1210.00
2023-05-22T03:31:33.239Z,1203.00
2023-05-22T03:32:33.285Z,1217.00
2023-05-22T03:33:33.307Z,1211.00
2023-05-22T03:34:33.284Z,1203.00
2023-05-22T03:35:33.291Z,1214.00
2023-05-22T03:36:33.294Z,1196.00
2023-05-22T03:37:33.315Z,1204.00
2023-05-22T03:38:33.323Z,1200.00
2023-05-22T03:39:33.326Z,1204.00
2023-05-22T03:40:33.356Z,1193.00
2023-05-22T03:41:33.427Z,1206.00
2023-05-22T03:42:33.476Z,1207.00
2023-05-22T03:43:33.519Z,1197.00
2023-05-22T03:44:33.569Z,1195.00
2023-05-22T03:45:33.642Z,1208.00
2023-05-22T03:46:33.658Z,1209.00
2023-05-22T03:47:33.767Z,1207.00
2023-05-22T03:48:33.764Z,1193.00
2023-05-22T03:49:33.802Z,1199.00
2023-05-22T03:50:33.855Z,1210.00
2023-05-22T03:51:33.895Z,1202.00
2023-05-22T03:52:33.959Z,1192.00
2023-05-22T03:53:33.986Z,1206.00
2023-05-22T03:54:34.038Z,1201.00
2023-05-22T03:55:34.073Z,1195.00
2023-05-22T03:56:34.135Z,1188.00
2023-05-22T03:57:34.178Z,1190.00
2023-05-22T03:58:34.241Z,1196.00
2023-05-22T03:59:34.274Z,1192.00
2023-05-22T04:00:34.348Z,1199.00
2023-05-22T04:01:34.385Z,1197.00
2023-05-22T04:02:34.490Z,1195.00
2023-05-22T04:03:34.535Z,1201.00
2023-05-22T04:04:34.581Z,1197.00
2023-05-22T04:05:34.660Z,1194.00
2023-05-22T04:06:34.651Z,1188.00
2023-05-22T04:07:34.738Z,1206.00
2023-05-22T04:08:34.779Z,1201.00
2023-05-22T04:09:34.808Z,1202.00
2023-05-22T04:10:34.870Z,1197.00
2023-05-22T04:11:34.909Z,1198.00
2023-05-22T04:12:34.972Z,1208.00
2023-05-22T04:13:35.010Z,1205.00
2023-05-22T04:14:35.054Z,1201.00
2023-05-22T04:15:35.126Z,1207.00
2023-05-22T04:16:35.156Z,1195.00
2023-05-22T04:17:35.229Z,1180.00
2023-05-22T04:18:35.259Z,1192.00
2023-05-22T04:19:35.322Z,1200.00
2023-05-22T04:20:35.334Z,1191.00
2023-05-22T04:21:35.485Z,1188.00
2023-05-22T04:22:35.439Z,1201.00
2023-05-22T04:23:35.470Z,1199.00
2023-05-22T04:24:35.521Z,1197.00
2023-05-22T04:25:35.553Z,1202.00
2023-05-22T04:26:35.606Z,1195.00
2023-05-22T04:27:35.647Z,1197.00
2023-05-22T04:28:35.686Z,1193.00
2023-05-22T04:29:35.725Z,1198.00
2023-05-22T04:30:35.776Z,1196.00
2023-05-22T04:31:35.988Z,1207.00
2023-05-22T04:32:35.872Z,1191.00
2023-05-22T04:33:35.900Z,1196.00
2023-05-22T04:34:35.950Z,1202.00
2023-05-22T04:35:36.019Z,1192.00
2023-05-22T04:36:36.055Z,1200.00
2023-05-22T04:37:36.046Z,1201.00
2023-05-22T04:38:36.054Z,1201.00
2023-05-22T04:39:36.081Z,1203.00
2023-05-22T04:40:36.080Z,1200.00
2023-05-22T04:41:36.089Z,1205.00
2023-05-22T04:42:36.105Z,1193.00
2023-05-22T04:43:36.112Z,1190.00
2023-05-22T04:44:36.122Z,1207.00
2023-05-22T04:45:36.133Z,1197.00
2023-05-22T04:46:36.245Z,1201.00
2023-05-22T04:47:36.172Z,1199.00
2023-05-22T04:48:36.194Z,1190.00
2023-05-22T04:49:36.197Z,1194.00
2023-05-22T04:50:36.210Z,1182.00
2023-05-22T04:51:36.205Z,1194.00
2023-05-22T04:52:36.273Z,1171.00
2023-05-22T04:53:36.367Z,1166.00
2023-05-22T04:54:36.274Z,1154.00
2023-05-22T04:55:36.284Z,1155.00
2023-05-22T04:56:37.347Z,1158.00
2023-05-22T04:57:36.320Z,1155.00
2023-05-22T04:58:36.322Z,1162.00
2023-05-22T04:59:36.353Z,1145.00
2023-05-22T05:00:36.427Z,1156.00
2023-05-22T05:01:36.450Z,1156.00
2023-05-22T05:02:36.435Z,1158.00
2023-05-22T05:03:36.489Z,1152.00
2023-05-22T05:04:36.438Z,1143.00
2023-05-22T05:05:36.466Z,1113.00
2023-05-22T05:06:36.471Z,1130.00
2023-05-22T05:07:36.491Z,1131.00
2023-05-22T05:08:36.502Z,1112.00
2023-05-22T05:09:36.538Z,1111.00
2023-05-22T05:10:36.567Z,1098.00
2023-05-22T05:11:36.574Z,1099.00
2023-05-22T05:12:36.593Z,1130.00
2023-05-22T05:13:36.602Z,1104.00
2023-05-22T05:14:36.606Z,1085.00
2023-05-22T05:15:36.653Z,1078.00
2023-05-22T05:16:36.662Z,1076.00
2023-05-22T05:17:36.712Z,1046.00
2023-05-22T05:18:36.694Z,1050.00
2023-05-22T05:19:37.169Z,1032.00
2023-05-22T05:20:36.892Z,1025.00
2023-05-22T05:21:36.754Z,1038.00
2023-05-22T05:22:36.798Z,1037.00
2023-05-22T05:23:36.792Z,1009.00
2023-05-22T05:24:36.842Z,1002.00
2023-05-22T05:25:36.939Z,1018.00
2023-05-22T05:26:36.865Z,1026.00
2023-05-22T05:27:36.887Z,1002.00
2023-05-22T05:28:36.929Z,1014.00
2023-05-22T05:29:36.966Z,1005.00
2023-05-22T05:30:37.084Z,997.00
2023-05-22T05:31:36.983Z,999.00
2023-05-22T05:32:37.044Z,903.00
2023-05-22T05:33:37.079Z,760.00
2023-05-22T05:34:37.137Z,684.00
2023-05-22T05:35:37.218Z,641.00
2023-05-22T05:36:37.286Z,603.00
2023-05-22T05:37:37.377Z,587.00
2023-05-22T05:38:37.455Z,603.00
2023-05-22T05:39:37.558Z,619.00
2023-05-22T05:40:37.787Z,620.00
2023-05-22T05:41:37.815Z,578.00
2023-05-22T05:42:37.776Z,580.00
2023-05-22T05:43:37.817Z,562.00
2023-05-22T05:44:37.866Z,570.00
2023-05-22T05:45:37.899Z,563.00
2023-05-22T05:46:37.949Z,573.00
2023-05-22T05:47:38.020Z,573.00
2023-05-22T05:48:37.975Z,549.00
2023-05-22T05:49:38.008Z,551.00
2023-05-22T05:50:38.176Z,553.00
2023-05-22T05:51:38.083Z,542.00
2023-05-22T05:52:38.096Z,547.00
2023-05-22T05:53:38.133Z,543.00
2023-05-22T05:54:38.151Z,555.00
2023-05-22T05:55:38.211Z,521.00
2023-05-22T05:56:38.400Z,504.00
2023-05-22T05:57:38.353Z,503.00
2023-05-22T05:58:38.441Z,500.00
2023-05-22T05:59:38.538Z,500.00
2023-05-22T06:00:38.757Z,500.00
2023-05-22T06:01:38.834Z,517.00
2023-05-22T06:02:38.871Z,506.00
2023-05-22T06:03:39.012Z,500.00
2023-05-22T06:04:39.007Z,509.00
2023-05-22T06:05:39.168Z,501.00
2023-05-22T06:06:39.299Z,500.00
2023-05-22T06:07:39.306Z,498.00
2023-05-22T06:08:39.369Z,503.00
2023-05-22T06:09:39.426Z,501.00
2023-05-22T06:10:39.777Z,500.00
2023-05-22T06:11:39.624Z,507.00
2023-05-22T06:12:39.721Z,500.00
2023-05-22T06:13:39.796Z,506.00
2023-05-22T06:14:39.915Z,500.00
2023-05-22T06:15:39.996Z,500.00
2023-05-22T06:16:40.560Z,500.00
2023-05-22T06:17:40.212Z,513.00
2023-05-22T06:18:40.258Z,502.00
2023-05-22T06:19:40.364Z,500.00
2023-05-22T06:20:40.771Z,500.00
2023-05-22T06:21:40.532Z,504.00
2023-05-22T06:22:40.628Z,522.00
2023-05-22T06:23:40.713Z,525.00
2023-05-22T06:24:40.800Z,500.00
2023-05-22T06:25:40.891Z,514.00
2023-05-22T06:26:40.999Z,524.00
2023-05-22T06:27:41.060Z,534.00
2023-05-22T06:28:41.134Z,500.00
2023-05-22T06:29:41.215Z,498.00
2023-05-22T06:30:41.317Z,499.00
2023-05-22T06:31:41.451Z,513.00
2023-05-22T06:32:41.634Z,496.00
2023-05-22T06:33:41.554Z,500.00
2023-05-22T06:34:41.585Z,521.00
2023-05-22T06:35:41.636Z,534.00
2023-05-22T06:36:41.661Z,516.00
2023-05-22T06:37:41.680Z,536.00
2023-05-22T06:38:41.703Z,557.00
2023-05-22T06:39:41.709Z,566.00
2023-05-22T06:40:41.996Z,508.00
2023-05-22T06:41:41.754Z,512.00
2023-05-22T06:42:41.778Z,495.00
2023-05-22T06:43:41.815Z,490.00
2023-05-22T06:44:41.868Z,486.00
2023-05-22T06:45:41.945Z,514.00
2023-05-22T06:46:41.845Z,555.00
2023-05-22T06:47:41.928Z,601.00
2023-05-22T06:49:57.487Z,500.00
2023-05-22T06:50:57.516Z,500.00
2023-05-22T06:51:57.498Z,500.00
2023-05-22T06:52:57.500Z,500.00
2023-05-22T06:53:57.496Z,500.00
2023-05-22T06:54:57.500Z,531.00
2023-05-22T06:55:57.495Z,532.00
2023-05-22T06:56:57.526Z,536.00
2023-05-22T06:57:57.499Z,552.00
2023-05-22T06:58:57.477Z,589.00
2023-05-22T06:59:57.478Z,648.00
2023-05-22T07:00:57.639Z,722.00
2023-05-22T07:01:57.481Z,781.00
2023-05-22T07:02:57.557Z,787.00
2023-05-22T07:03:57.457Z,961.00
2023-05-22T07:04:57.480Z,1023.00
2023-05-22T07:05:57.563Z,1035.00
2023-05-22T07:06:57.447Z,1252.00
2023-05-22T07:07:57.483Z,896.00
2023-05-22T07:08:57.461Z,619.00
2023-05-22T07:09:57.467Z,521.00
2023-05-22T07:10:57.482Z,508.00
2023-05-22T07:11:57.501Z,478.00
2023-05-22T07:12:57.535Z,405.00
2023-05-22T07:13:57.500Z,487.00
2023-05-22T07:14:57.503Z,415.00
2023-05-22T07:15:57.536Z,431.00
2023-05-22T07:16:57.657Z,511.00
2023-05-22T07:17:57.560Z,538.00
2023-05-22T07:18:57.564Z,560.00
2023-05-22T07:19:57.544Z,548.00
2023-05-22T07:20:57.571Z,494.00
2023-05-22T07:21:57.576Z,546.00
2023-05-22T07:22:57.592Z,574.00
2023-05-22T07:23:57.616Z,597.00
2023-05-22T07:24:57.607Z,556.00
2023-05-22T07:25:57.629Z,468.00
2023-05-22T07:26:57.621Z,446.00
2023-05-22T07:27:57.625Z,455.00
2023-05-22T07:28:57.627Z,486.00
2023-05-22T07:29:57.637Z,505.00
2023-05-22T07:30:57.642Z,507.00
2023-05-22T07:31:57.730Z,446.00
2023-05-22T07:32:57.652Z,503.00
2023-05-22T07:33:57.643Z,547.00
2023-05-22T07:34:57.646Z,574.00
2023-05-22T07:35:57.640Z,576.00
2023-05-22T07:36:57.668Z,511.00
2023-05-22T07:37:57.650Z,400.00
2023-05-22T07:38:57.678Z,400.00
2023-05-22T07:39:57.639Z,400.00
2023-05-22T07:40:57.633Z,400.00
2023-05-22T07:41:59.406Z,400.00
2023-05-22T07:42:57.737Z,400.00
2023-05-22T07:43:57.800Z,400.00
2023-05-22T07:44:57.810Z,400.00
2023-05-22T07:45:57.859Z,400.00
2023-05-22T07:46:57.903Z,400.00
2023-05-22T07:47:57.925Z,400.00
2023-05-22T07:48:58.116Z,400.00
2023-05-22T07:49:58.007Z,400.00
2023-05-22T07:50:58.049Z,478.00
2023-05-22T07:51:58.114Z,552.00
2023-05-22T07:52:58.151Z,678.00
2023-05-22T07:54:58.219Z,615.00
2023-05-22T07:55:58.260Z,780.00
2023-05-22T07:56:58.299Z,1008.00
2023-05-22T07:57:58.349Z,1162.00
2023-05-22T07:58:58.370Z,1211.00
2023-05-22T07:59:58.404Z,1315.00
2023-05-22T08:00:58.415Z,1396.00
2023-05-22T08:01:58.638Z,1376.00
2023-05-22T08:02:58.591Z,1353.00
2023-05-22T08:03:58.682Z,1364.00
2023-05-22T08:04:58.616Z,1471.00
2023-05-22T08:05:58.578Z,1553.00
2023-05-22T08:06:58.591Z,1662.00
2023-05-22T08:07:58.633Z,1810.00
2023-05-22T08:08:58.609Z,1901.00
2023-05-22T08:09:58.625Z,1950.00
2023-05-22T08:11:58.626Z,2091.00
2023-05-22T08:12:58.642Z,2172.00
2023-05-22T08:13:58.626Z,2200.00
2023-05-22T08:14:58.605Z,2282.00
2023-05-22T08:16:00.415Z,2304.00
2023-05-22T08:16:58.737Z,2304.00
2023-05-22T08:17:58.716Z,2313.00
2023-05-22T08:18:58.693Z,2344.00
2023-05-22T08:19:58.695Z,2304.00
2023-05-22T08:20:58.671Z,2357.00
2023-05-22T08:21:58.682Z,2438.00
2023-05-22T08:22:58.647Z,2431.00
2023-05-22T08:23:58.637Z,2408.00
2023-05-22T08:24:58.667Z,2386.00
2023-05-22T08:25:58.676Z,2355.00
2023-05-22T08:26:58.662Z,2356.00
2023-05-22T08:27:58.648Z,2365.00
2023-05-22T08:28:58.664Z,2373.00
2023-05-22T08:29:58.683Z,2363.00
2023-05-22T08:30:58.635Z,2359.00
2023-05-22T08:31:58.712Z,1656.00
2023-05-22T08:32:58.661Z,1394.00
2023-05-22T08:33:58.625Z,1235.00
2023-05-22T08:34:58.611Z,1088.00
2023-05-22T08:35:58.623Z,885.00
2023-05-22T08:36:58.644Z,693.00
2023-05-22T08:37:58.622Z,615.00
2023-05-22T08:38:58.610Z,561.00
2023-05-22T08:39:58.568Z,481.00
2023-05-22T08:40:58.576Z,495.00
2023-05-22T08:41:58.566Z,433.00
2023-05-22T08:42:58.657Z,417.00
2023-05-22T08:43:58.643Z,400.00
2023-05-22T08:44:58.580Z,400.00
2023-05-22T08:45:58.574Z,400.00
2023-05-22T08:46:58.621Z,458.00
2023-05-22T08:47:58.593Z,542.00
2023-05-22T08:48:58.633Z,534.00
2023-05-22T08:49:58.576Z,469.00
2023-05-22T08:50:58.621Z,501.00
2023-05-22T08:51:58.574Z,502.00
2023-05-22T08:52:58.570Z,506.00
2023-05-22T08:53:58.627Z,522.00
2023-05-22T08:54:58.558Z,548.00
2023-05-22T08:55:58.555Z,693.00
2023-05-22T08:56:58.557Z,720.00
2023-05-22T08:57:58.588Z,692.00
2023-05-22T08:58:58.574Z,802.00
2023-05-22T08:59:58.558Z,773.00
2023-05-22T09:00:58.602Z,547.00
2023-05-22T09:01:58.583Z,560.00
2023-05-22T09:02:58.610Z,536.00
2023-05-22T09:03:58.619Z,508.00
2023-05-22T09:04:58.561Z,479.00
2023-05-22T09:05:58.560Z,501.00
2023-05-22T09:06:58.550Z,449.00
2023-05-22T09:08:08.438Z,465.00
2023-05-22T09:08:59.588Z,407.00
2023-05-22T09:09:58.550Z,400.00
2023-05-22T09:10:58.556Z,400.00
2023-05-22T09:11:58.568Z,400.00
2023-05-22T09:12:58.558Z,400.00
2023-05-22T09:13:58.582Z,400.00
2023-05-22T09:14:58.581Z,400.00
2023-05-22T09:15:58.566Z,403.00
2023-05-22T09:16:58.634Z,450.00
2023-05-22T09:17:58.610Z,436.00
2023-05-22T09:18:58.628Z,443.00
2023-05-22T09:19:58.581Z,434.00
2023-05-22T09:20:58.585Z,457.00
2023-05-22T09:21:58.587Z,558.00
2023-05-22T09:22:58.606Z,615.00
2023-05-22T09:23:58.624Z,615.00
2023-05-22T09:24:58.965Z,620.00
2023-05-22T09:25:58.614Z,640.00
2023-05-22T09:26:58.609Z,724.00
2023-05-22T09:27:58.610Z,1024.00
2023-05-22T09:28:58.602Z,1179.00
2023-05-22T09:29:58.602Z,1314.00
2023-05-22T09:30:58.627Z,1275.00
2023-05-22T09:31:58.640Z,1273.00
2023-05-22T09:32:58.652Z,1328.00
2023-05-22T09:33:58.588Z,1466.00
2023-05-22T09:34:58.595Z,1483.00
2023-05-22T09:35:58.573Z,1554.00
2023-05-22T09:36:58.564Z,1425.00
2023-05-22T09:37:58.578Z,1530.00
2023-05-22T09:38:58.571Z,1505.00
2023-05-22T09:39:58.608Z,1618.00
2023-05-22T09:40:58.594Z,1572.00
2023-05-22T09:41:58.575Z,1557.00
2023-05-22T09:42:58.579Z,1561.00
2023-05-22T09:44:00.335Z,1593.00
2023-05-22T09:44:58.575Z,1565.00
2023-05-22T09:45:58.631Z,1568.00
2023-05-22T09:46:58.562Z,1566.00
2023-05-22T09:47:58.613Z,1685.00
2023-05-22T09:48:58.550Z,1768.00
2023-05-22T09:49:58.545Z,1772.00
2023-05-22T09:50:58.542Z,1787.00
2023-05-22T09:51:58.555Z,1831.00
2023-05-22T09:52:58.522Z,1826.00
2023-05-22T09:53:58.508Z,1771.00
2023-05-22T09:54:58.521Z,1649.00
2023-05-22T09:55:58.519Z,1624.00
2023-05-22T09:56:58.557Z,1653.00
2023-05-22T09:57:58.532Z,1620.00
2023-05-22T09:58:58.518Z,1770.00
2023-05-22T09:59:58.549Z,1802.00
2023-05-22T10:00:58.518Z,1904.00
2023-05-22T10:01:58.605Z,2010.00
2023-05-22T10:02:58.624Z,2191.00
2023-05-22T10:03:58.660Z,2311.00
2023-05-22T10:04:58.677Z,2441.00
2023-05-22T10:05:58.808Z,2460.00
2023-05-22T10:06:58.800Z,2527.00
2023-05-22T10:07:58.885Z,2665.00
2023-05-22T10:08:58.926Z,2736.00
2023-05-22T10:09:58.979Z,2804.00
2023-05-22T10:10:59.025Z,2795.00
2023-05-22T10:11:59.081Z,2819.00
2023-05-22T10:12:59.203Z,2822.00
2023-05-22T10:13:59.056Z,2842.00
2023-05-22T10:14:59.094Z,2823.00
2023-05-22T10:15:59.138Z,2856.00
2023-05-22T10:16:59.024Z,2937.00
2023-05-22T10:17:59.048Z,3063.00
2023-05-22T10:18:59.057Z,3267.00
2023-05-22T10:19:58.990Z,3291.00
2023-05-22T10:20:58.993Z,3357.00
2023-05-22T10:21:58.993Z,3385.00
2023-05-22T10:22:58.983Z,3351.00
2023-05-22T10:23:58.997Z,3339.00
2023-05-22T10:24:59.043Z,3407.00
2023-05-22T10:25:59.091Z,3390.00
2023-05-22T10:26:59.132Z,3376.00
2023-05-22T10:27:59.177Z,3351.00
2023-05-22T10:28:59.306Z,3269.00
2023-05-22T10:29:59.274Z,3120.00
2023-05-22T10:30:59.312Z,3119.00
2023-05-22T10:31:59.343Z,3186.00
2023-05-22T10:32:59.452Z,3276.00
2023-05-22T10:33:59.410Z,3281.00
2023-05-22T10:34:59.374Z,3303.00
2023-05-22T10:35:59.350Z,3335.00
2023-05-22T10:37:13.278Z,3363.00
2023-05-22T10:38:00.338Z,3219.00
2023-05-22T10:38:59.331Z,2944.00
2023-05-22T10:39:59.305Z,2852.00
2023-05-22T10:40:59.317Z,2414.00
2023-05-22T10:41:59.289Z,2036.00
2023-05-22T10:42:59.302Z,1910.00
2023-05-22T10:43:59.275Z,1845.00
2023-05-22T10:44:59.363Z,1565.00
2023-05-22T10:45:59.298Z,1519.00
2023-05-22T10:46:59.267Z,1504.00
2023-05-22T10:47:59.271Z,1514.00
2023-05-22T10:48:59.241Z,1480.00
2023-05-22T10:49:59.247Z,1487.00
2023-05-22T10:51:00.010Z,1600.00
2023-05-22T10:51:59.303Z,2147.00
2023-05-22T10:52:59.375Z,3017.00
2023-05-22T10:53:59.434Z,3102.00
2023-05-22T10:54:59.401Z,3109.00
2023-05-22T10:55:59.405Z,2985.00
2023-05-22T10:56:59.375Z,3107.00
2023-05-22T10:57:59.364Z,3061.00
2023-05-22T10:58:59.385Z,3148.00
2023-05-22T10:59:59.331Z,3753.00
2023-05-22T11:00:59.395Z,3700.00
2023-05-22T11:01:59.314Z,3443.00
2023-05-22T11:03:10.073Z,3376.00
2023-05-22T11:04:00.290Z,3391.00
2023-05-22T11:04:59.267Z,3397.00
2023-05-22T11:05:59.264Z,3360.00
2023-05-22T11:06:59.229Z,3333.00
2023-05-22T11:07:59.212Z,3356.00
2023-05-22T11:08:59.190Z,3450.00
2023-05-22T11:09:59.173Z,3544.00
2023-05-22T11:10:59.309Z,3602.00
2023-05-22T11:11:59.149Z,3697.00
2023-05-22T11:12:59.139Z,3794.00
2023-05-22T11:13:59.144Z,3801.00
2023-05-22T11:14:59.216Z,3869.00
2023-05-22T11:15:59.231Z,3942.00
2023-05-22T11:16:59.377Z,3993.00
2023-05-22T11:17:59.389Z,4047.00
2023-05-22T11:19:00.608Z,4049.00
2023-05-22T11:19:59.437Z,4024.00
2023-05-22T11:20:59.332Z,4002.00
2023-05-22T11:21:59.304Z,4014.00
2023-05-22T11:22:59.291Z,3925.00
2023-05-22T11:23:59.249Z,3913.00
2023-05-22T11:24:59.288Z,3941.00
2023-05-22T11:25:59.203Z,3805.00
2023-05-22T11:26:59.199Z,3330.00
2023-05-22T11:27:59.174Z,3206.00
2023-05-22T11:28:59.160Z,3242.00
2023-05-22T11:29:59.156Z,3366.00
2023-05-22T11:30:59.187Z,3431.00
2023-05-22T11:31:59.113Z,3493.00
2023-05-22T11:32:59.198Z,3523.00
2023-05-22T11:33:59.089Z,3517.00
2023-05-22T11:34:59.074Z,3536.00
2023-05-22T11:35:59.068Z,3539.00
2023-05-22T11:36:59.061Z,3554.00
2023-05-22T11:37:59.045Z,3569.00
2023-05-22T11:38:59.030Z,3556.00
2023-05-22T11:39:59.015Z,3554.00
2023-05-22T11:40:59.006Z,3521.00
2023-05-22T11:41:58.989Z,3502.00
2023-05-22T11:42:58.989Z,3446.00
2023-05-22T11:43:58.958Z,3431.00
2023-05-22T11:44:58.950Z,3407.00
2023-05-22T11:45:58.971Z,3408.00
2023-05-22T11:46:58.926Z,3407.00
2023-05-22T11:47:58.953Z,3356.00
2023-05-22T11:48:58.994Z,3428.00
2023-05-22T11:49:58.889Z,3459.00
2023-05-22T11:50:58.900Z,3502.00
2023-05-22T11:51:58.878Z,3526.00
2023-05-22T11:52:58.895Z,3582.00
2023-05-22T11:53:58.874Z,3601.00
2023-05-22T11:54:58.856Z,3606.00
2023-05-22T11:55:58.854Z,3588.00
2023-05-22T11:56:58.896Z,3640.00
2023-05-22T11:57:58.959Z,3696.00
2023-05-22T11:58:59.009Z,3701.00
2023-05-22T11:59:59.030Z,3733.00
2023-05-22T12:00:59.066Z,3758.00
2023-05-22T12:01:59.108Z,3786.00
2023-05-22T12:02:59.470Z,3796.00
2023-05-22T12:03:59.328Z,3789.00
2023-05-22T12:04:59.332Z,3812.00
2023-05-22T12:05:59.309Z,3812.00
2023-05-22T12:06:59.402Z,3845.00
2023-05-22T12:07:59.407Z,3872.00
2023-05-22T12:08:59.424Z,3891.00
2023-05-22T12:09:59.459Z,3908.00
2023-05-22T12:10:59.461Z,3908.00
2023-05-22T12:11:59.453Z,3913.00
2023-05-22T12:12:59.432Z,3926.00
2023-05-22T12:13:59.416Z,3943.00
2023-05-22T12:14:59.407Z,3975.00